createdAt,value
2022-10-22T00:01:13.804Z,99538.72
2022-10-22T00:03:44.906Z,99533.56
2022-10-22T00:06:14.275Z,99527.91
2022-10-22T00:08:42.399Z,99521.25
2022-10-22T00:11:12.493Z,99529.81
2022-10-22T00:13:40.766Z,99517.53
2022-10-22T00:16:09.162Z,99519.03
2022-10-22T00:18:37.335Z,99521.00
2022-10-22T00:21:05.751Z,99526.25
2022-10-22T00:23:35.520Z,99521.34
2022-10-22T00:26:03.601Z,99519.81
2022-10-22T00:28:31.773Z,99525.25
2022-10-22T00:31:01.339Z,99513.13
2022-10-22T00:33:30.608Z,99507.72
2022-10-22T00:35:58.974Z,99500.91
2022-10-22T00:38:27.098Z,99492.06
2022-10-22T00:40:56.633Z,99491.69
2022-10-22T00:43:24.799Z,99490.44
2022-10-22T00:45:52.906Z,99497.88
2022-10-22T00:48:23.566Z,99491.69
2022-10-22T00:50:55.605Z,99490.97
2022-10-22T00:53:26.599Z,99488.50
2022-10-22T00:55:57.129Z,99490.44
2022-10-22T00:58:27.491Z,99488.06
2022-10-22T01:00:56.346Z,99497.28
2022-10-22T01:03:24.466Z,99494.66
2022-10-22T01:05:57.429Z,99491.22
2022-10-22T01:08:29.923Z,99487.75
2022-10-22T01:11:08.196Z,99483.91
2022-10-22T01:13:46.041Z,99498.28
2022-10-22T01:16:20.267Z,99496.63
2022-10-22T01:18:53.552Z,99497.50
2022-10-22T01:21:27.708Z,99504.56
2022-10-22T01:24:27.125Z,99502.00
2022-10-22T01:27:05.224Z,99495.75
2022-10-22T01:29:38.829Z,99481.53
2022-10-22T01:32:10.119Z,99467.56
2022-10-22T01:34:40.271Z,99461.16
2022-10-22T01:37:09.613Z,99457.16
2022-10-22T01:39:38.157Z,99447.09
2022-10-22T01:42:06.260Z,99448.78
2022-10-22T01:44:37.604Z,99454.06
2022-10-22T01:47:16.189Z,99458.19
2022-10-22T01:50:07.497Z,99456.06
2022-10-22T01:52:48.050Z,99450.94
2022-10-22T01:55:22.112Z,99442.91
2022-10-22T01:57:55.406Z,99433.66
2022-10-22T02:00:25.002Z,99434.41
2022-10-22T02:03:00.344Z,99436.03
2022-10-22T02:05:31.623Z,99436.47
2022-10-22T02:08:04.775Z,99424.38
2022-10-22T02:10:33.562Z,99410.63
2022-10-22T02:13:02.611Z,99410.31
2022-10-22T02:15:34.599Z,99418.16
2022-10-22T02:18:02.910Z,99434.34
2022-10-22T02:20:33.179Z,99446.81
2022-10-22T02:23:01.667Z,99442.91
2022-10-22T02:25:33.249Z,99433.16
2022-10-22T02:28:04.039Z,99444.19
2022-10-22T02:30:35.124Z,99437.56
2022-10-22T02:33:06.868Z,99434.41
2022-10-22T02:35:35.466Z,99440.28
2022-10-22T02:38:03.713Z,99438.16
2022-10-22T02:40:32.562Z,99436.84
2022-10-22T02:43:00.770Z,99433.75
2022-10-22T02:45:28.875Z,99428.47
2022-10-22T02:47:58.384Z,99417.03
2022-10-22T02:50:26.394Z,99416.78
2022-10-22T02:52:54.436Z,99411.13
2022-10-22T02:55:23.009Z,99418.00
2022-10-22T02:57:51.045Z,99427.44
2022-10-22T03:00:19.316Z,99424.06
2022-10-22T03:02:47.359Z,99422.56
2022-10-22T03:05:16.881Z,99416.19
2022-10-22T03:07:44.908Z,99419.78
2022-10-22T03:10:13.037Z,99426.84
2022-10-22T03:12:41.087Z,99418.72
2022-10-22T03:15:09.633Z,99422.78
2022-10-22T03:17:37.877Z,99419.28
2022-10-22T03:20:06.797Z,99434.47
2022-10-22T03:22:36.725Z,99423.69
2022-10-22T03:25:08.726Z,99429.22
2022-10-22T03:27:37.753Z,99418.28
2022-10-22T03:30:08.508Z,99417.22
2022-10-22T03:32:36.559Z,99410.38
2022-10-22T03:35:05.644Z,99406.09
2022-10-22T03:37:34.070Z,99399.19
2022-10-22T03:40:03.919Z,99404.53
2022-10-22T03:42:31.938Z,99407.50
2022-10-22T03:45:00.087Z,99410.22
2022-10-22T03:47:28.123Z,99412.19
2022-10-22T03:49:56.182Z,99404.53
2022-10-22T03:52:24.196Z,99398.84
2022-10-22T03:54:52.302Z,99384.41
2022-10-22T03:57:21.657Z,99378.81
2022-10-22T03:59:51.011Z,99388.59
2022-10-22T04:02:19.030Z,99393.88
2022-10-22T04:04:47.070Z,99405.03
2022-10-22T04:07:15.156Z,99414.19
2022-10-22T04:09:43.184Z,99409.09
2022-10-22T04:12:11.203Z,99407.34
2022-10-22T04:14:40.643Z,99428.66
2022-10-22T04:17:08.697Z,99428.56
2022-10-22T04:19:36.861Z,99438.13
2022-10-22T04:22:05.072Z,99425.88
2022-10-22T04:24:33.878Z,99432.06
2022-10-22T04:27:01.949Z,99431.25
2022-10-22T04:29:30.003Z,99417.00
2022-10-22T04:31:59.386Z,99404.00
2022-10-22T04:34:29.643Z,99410.31
2022-10-22T04:36:57.669Z,99406.56
2022-10-22T04:39:25.719Z,99410.81
2022-10-22T04:41:53.723Z,99410.75
2022-10-22T04:44:21.752Z,99426.19
2022-10-22T04:46:49.976Z,99412.25
2022-10-22T04:49:19.861Z,99412.50
2022-10-22T04:51:47.992Z,99419.25
2022-10-22T04:54:17.176Z,99416.94
2022-10-22T04:56:45.190Z,99435.63
2022-10-22T04:59:13.857Z,99424.81
2022-10-22T05:01:43.731Z,99422.50
2022-10-22T05:04:13.809Z,99428.50
2022-10-22T05:06:43.779Z,99427.56
2022-10-22T05:09:15.077Z,99417.00
2022-10-22T05:11:46.377Z,99417.16
2022-10-22T05:14:14.497Z,99422.41
2022-10-22T05:16:42.571Z,99421.19
2022-10-22T05:19:16.804Z,99428.28
2022-10-22T05:21:46.219Z,99413.47
2022-10-22T05:24:14.594Z,99423.59
2022-10-22T05:26:42.875Z,99424.44
2022-10-22T05:29:10.904Z,99424.00
2022-10-22T05:31:39.221Z,99426.75
2022-10-22T05:34:07.282Z,99431.72
2022-10-22T05:36:35.442Z,99444.44
2022-10-22T05:39:05.080Z,99438.66
2022-10-22T05:41:34.235Z,99451.69
2022-10-22T05:44:02.396Z,99448.09
2022-10-22T05:46:31.463Z,99447.94
2022-10-22T05:49:01.106Z,99451.94
2022-10-22T05:51:30.504Z,99455.09
2022-10-22T05:54:00.166Z,99449.47
2022-10-22T05:56:31.964Z,99443.81
2022-10-22T05:59:00.509Z,99420.84
2022-10-22T06:01:31.171Z,99423.03
2022-10-22T06:04:01.373Z,99428.91
2022-10-22T06:06:31.709Z,99435.72
2022-10-22T06:09:02.778Z,99439.44
2022-10-22T06:11:34.981Z,99450.97
2022-10-22T06:14:03.476Z,99456.41
2022-10-22T06:16:31.873Z,99452.59
2022-10-22T06:19:00.833Z,99454.97
2022-10-22T06:21:29.524Z,99470.22
2022-10-22T06:23:58.098Z,99481.88
2022-10-22T06:26:26.323Z,99472.13
2022-10-22T06:28:55.856Z,99478.06
2022-10-22T06:31:24.121Z,99479.25
2022-10-22T06:33:52.294Z,99481.91
2022-10-22T06:36:22.065Z,99481.78
2022-10-22T06:38:52.791Z,99475.00
2022-10-22T06:41:24.224Z,99476.25
2022-10-22T06:43:57.598Z,99487.09
2022-10-22T06:46:26.868Z,99490.53
2022-10-22T06:48:56.384Z,99479.28
2022-10-22T06:51:24.789Z,99487.19
2022-10-22T06:53:52.778Z,99490.03
2022-10-22T06:56:23.362Z,99503.09
2022-10-22T06:58:52.601Z,99512.03
2022-10-22T07:01:24.068Z,99512.91
2022-10-22T07:03:52.786Z,99514.97
2022-10-22T07:06:22.062Z,99532.88
2022-10-22T07:08:50.274Z,99550.28
2022-10-22T07:11:19.636Z,99540.22
2022-10-22T07:13:48.257Z,99548.91
2022-10-22T07:16:19.225Z,99567.31
2022-10-22T07:18:49.621Z,99579.63
2022-10-22T07:21:20.360Z,99592.16
2022-10-22T07:23:48.551Z,99598.72
2022-10-22T07:26:20.405Z,99593.72
2022-10-22T07:28:48.721Z,99589.88
2022-10-22T07:31:17.401Z,99603.28
2022-10-22T07:33:45.977Z,99602.69
2022-10-22T07:36:18.349Z,99605.25
2022-10-22T07:38:47.193Z,99614.97
2022-10-22T07:41:15.568Z,99605.81
2022-10-22T07:43:44.146Z,99606.81
2022-10-22T07:46:12.351Z,99587.38
2022-10-22T07:48:40.480Z,99609.22
2022-10-22T07:51:09.093Z,99615.03
2022-10-22T07:53:38.812Z,99633.19
2022-10-22T07:56:07.377Z,99638.66
2022-10-22T07:58:35.611Z,99651.34
2022-10-22T08:01:05.821Z,99657.97
2022-10-22T08:03:34.061Z,99647.50
2022-10-22T08:06:02.530Z,99619.16
2022-10-22T08:08:31.261Z,99615.19
2022-10-22T08:11:02.193Z,99625.19
2022-10-22T08:13:31.555Z,99614.88
2022-10-22T08:16:00.480Z,99608.38
2022-10-22T08:18:28.959Z,99594.09
2022-10-22T08:20:57.431Z,99591.13
2022-10-22T08:23:27.467Z,99571.31
2022-10-22T08:25:56.811Z,99576.09
2022-10-22T08:28:28.562Z,99594.63
2022-10-22T08:30:56.888Z,99605.16
2022-10-22T08:33:24.903Z,99618.88
2022-10-22T08:35:53.466Z,99609.69
2022-10-22T08:38:21.917Z,99594.53
2022-10-22T08:40:51.932Z,99592.56
2022-10-22T08:43:42.389Z,99593.63
2022-10-22T08:46:21.435Z,99597.72
2022-10-22T08:48:51.142Z,99607.44
2022-10-22T08:51:21.023Z,99594.75
2022-10-22T08:54:23.602Z,99598.16
2022-10-22T08:57:07.875Z,99607.06
2022-10-22T08:59:44.169Z,99605.16
2022-10-22T09:02:29.854Z,99611.06
2022-10-22T09:05:03.771Z,99603.16
2022-10-22T09:07:31.823Z,99604.47
2022-10-22T09:10:01.065Z,99606.16
2022-10-22T09:12:29.635Z,99600.28
2022-10-22T09:14:59.051Z,99601.44
2022-10-22T09:17:33.924Z,99596.84
2022-10-22T09:20:11.147Z,99579.34
2022-10-22T09:22:43.542Z,99588.09
2022-10-22T09:25:19.109Z,99589.47
2022-10-22T09:27:47.424Z,99595.53
2022-10-22T09:30:19.270Z,99602.81
2022-10-22T09:32:47.366Z,99599.81
2022-10-22T09:35:16.276Z,99599.44
2022-10-22T09:37:49.730Z,99597.00
2022-10-22T09:40:18.102Z,99609.75
2022-10-22T09:42:47.204Z,99612.50
2022-10-22T09:45:20.981Z,99604.47
2022-10-22T09:48:01.564Z,99605.41
2022-10-22T09:50:38.717Z,99616.81
2022-10-22T09:53:14.482Z,99613.06
2022-10-22T09:55:43.878Z,99614.19
2022-10-22T09:58:13.366Z,99612.31
2022-10-22T10:00:45.592Z,99624.75
2022-10-22T10:03:18.140Z,99624.53
2022-10-22T10:05:49.335Z,99623.63
2022-10-22T10:08:19.312Z,99629.72
2022-10-22T10:10:50.316Z,99624.59
2022-10-22T10:13:54.020Z,99628.19
2022-10-22T10:16:42.603Z,99631.94
2022-10-22T10:19:24.237Z,99633.75
2022-10-22T10:22:02.013Z,99616.94
2022-10-22T10:24:35.324Z,99620.97
2022-10-22T10:27:07.323Z,99625.97
2022-10-22T10:29:43.260Z,99625.97
2022-10-22T10:32:27.406Z,99634.22
2022-10-22T10:35:00.367Z,99623.34
2022-10-22T10:37:30.960Z,99628.31
2022-10-22T10:40:09.260Z,99634.31
2022-10-22T10:42:40.950Z,99626.13
2022-10-22T10:45:18.062Z,99615.06
2022-10-22T10:48:03.078Z,99615.41
2022-10-22T10:50:35.271Z,99615.16
2022-10-22T10:53:14.170Z,99626.22
2022-10-22T10:55:53.365Z,99619.50
2022-10-22T10:58:27.302Z,99620.78
2022-10-22T11:00:58.461Z,99608.72
2022-10-22T11:03:52.151Z,99609.19
2022-10-22T11:06:24.570Z,99601.38
2022-10-22T11:08:57.724Z,99606.19
2022-10-22T11:11:33.036Z,99597.84
2022-10-22T11:14:05.128Z,99610.59
2022-10-22T11:16:36.870Z,99597.28
2022-10-22T11:19:11.291Z,99590.53
2022-10-22T11:21:43.243Z,99587.72
2022-10-22T11:24:14.943Z,99582.38
2022-10-22T11:26:46.519Z,99573.84
2022-10-22T11:29:17.507Z,99579.75
2022-10-22T11:31:45.716Z,99588.16
2022-10-22T11:34:35.303Z,99592.09
2022-10-22T11:37:04.201Z,99593.63
2022-10-22T11:39:37.898Z,99595.47
2022-10-22T11:42:06.870Z,99587.50
2022-10-22T11:44:47.904Z,99588.19
2022-10-22T11:47:20.442Z,99584.03
2022-10-22T11:49:59.597Z,99591.41
2022-10-22T11:52:40.329Z,99583.56
2022-10-22T11:55:31.951Z,99588.75
2022-10-22T11:58:01.529Z,99586.63
2022-10-22T12:00:36.787Z,99592.28
2022-10-22T12:03:06.119Z,99587.44
2022-10-22T12:05:40.391Z,99587.09
2022-10-22T12:08:25.074Z,99586.47
2022-10-22T12:11:01.664Z,99586.13
2022-10-22T12:13:32.701Z,99581.88
2022-10-22T12:16:04.117Z,99586.94
2022-10-22T12:18:41.868Z,99586.69
2022-10-22T12:21:13.965Z,99590.09
2022-10-22T12:23:42.260Z,99595.44
2022-10-22T12:26:24.543Z,99582.50
2022-10-22T12:28:52.842Z,99583.66
2022-10-22T12:31:20.872Z,99589.84
2022-10-22T12:33:49.415Z,99575.22
2022-10-22T12:36:19.904Z,99589.69
2022-10-22T12:38:48.323Z,99579.44
2022-10-22T12:41:16.513Z,99580.50
2022-10-22T12:43:45.525Z,99586.34
2022-10-22T12:46:14.679Z,99573.56
2022-10-22T12:48:44.561Z,99575.81
2022-10-22T12:51:19.571Z,99573.13
2022-10-22T12:53:49.268Z,99574.88
2022-10-22T12:56:22.321Z,99575.91
2022-10-22T12:58:54.401Z,99586.81
2022-10-22T13:01:22.532Z,99578.94
2022-10-22T13:03:52.346Z,99580.09
2022-10-22T13:06:27.078Z,99570.34
2022-10-22T13:09:04.661Z,99566.53
2022-10-22T13:11:34.751Z,99577.28
2022-10-22T13:14:03.762Z,99570.88
2022-10-22T13:16:33.242Z,99573.78
2022-10-22T13:19:01.583Z,99566.81
2022-10-22T13:21:35.330Z,99572.34
2022-10-22T13:24:19.484Z,99567.38
2022-10-22T13:26:50.353Z,99566.50
2022-10-22T13:29:20.435Z,99570.75
2022-10-22T13:31:49.998Z,99570.09
2022-10-22T13:34:19.589Z,99567.31
2022-10-22T13:36:49.245Z,99572.78
2022-10-22T13:39:19.330Z,99580.84
2022-10-22T13:41:50.340Z,99574.97
2022-10-22T13:44:18.537Z,99574.75
2022-10-22T13:46:47.003Z,99576.78
2022-10-22T13:49:16.720Z,99571.09
2022-10-22T13:51:45.359Z,99573.72
2022-10-22T13:54:17.509Z,99569.13
2022-10-22T13:56:45.710Z,99575.81
2022-10-22T13:59:15.335Z,99572.50
2022-10-22T14:01:46.500Z,99566.16
2022-10-22T14:04:15.867Z,99562.78
2022-10-22T14:06:44.238Z,99568.09
2022-10-22T14:09:16.669Z,99587.78
2022-10-22T14:11:44.811Z,99585.88
2022-10-22T14:14:17.234Z,99578.03
2022-10-22T14:16:45.621Z,99586.00
2022-10-22T14:19:16.962Z,99583.09
2022-10-22T14:21:45.185Z,99577.75
2022-10-22T14:24:13.627Z,99585.44
2022-10-22T14:26:43.232Z,99581.63
2022-10-22T14:29:11.927Z,99577.59
2022-10-22T14:31:42.587Z,99580.72
2022-10-22T14:34:12.169Z,99592.28
2022-10-22T14:36:40.537Z,99589.78
2022-10-22T14:39:08.591Z,99602.81
2022-10-22T14:41:36.979Z,99593.56
2022-10-22T14:44:07.731Z,99603.81
2022-10-22T14:46:35.790Z,99596.19
2022-10-22T14:49:04.160Z,99592.03
2022-10-22T14:51:32.189Z,99585.38
2022-10-22T14:54:00.356Z,99586.31
2022-10-22T14:56:28.485Z,99588.53
2022-10-22T14:58:56.584Z,99587.91
2022-10-22T15:01:26.223Z,99582.78
2022-10-22T15:03:54.333Z,99587.88
2022-10-22T15:06:22.727Z,99595.09
2022-10-22T15:08:51.441Z,99598.31
2022-10-22T15:11:19.802Z,99604.50
2022-10-22T15:13:48.253Z,99596.06
2022-10-22T15:16:18.374Z,99598.63
2022-10-22T15:18:47.794Z,99606.81
2022-10-22T15:21:17.163Z,99604.50
2022-10-22T15:23:45.497Z,99602.66
2022-10-22T15:26:14.494Z,99609.13
2022-10-22T15:28:43.601Z,99609.34
2022-10-22T15:31:14.580Z,99620.91
2022-10-22T15:33:43.645Z,99601.81
2022-10-22T15:36:15.439Z,99614.94
2022-10-22T15:38:43.662Z,99623.31
2022-10-22T15:41:13.598Z,99618.56
2022-10-22T15:43:42.204Z,99623.78
2022-10-22T15:46:13.185Z,99617.41
2022-10-22T15:48:41.599Z,99618.91
2022-10-22T15:51:11.635Z,99615.19
2022-10-22T15:53:41.666Z,99621.44
2022-10-22T15:56:11.728Z,99623.00
2022-10-22T15:58:40.685Z,99636.88
2022-10-22T16:01:11.858Z,99629.31
2022-10-22T16:03:40.221Z,99636.53
2022-10-22T16:06:09.550Z,99643.47
2022-10-22T16:08:38.179Z,99641.38
2022-10-22T16:11:07.674Z,99645.94
2022-10-22T16:13:37.309Z,99633.69
2022-10-22T16:16:07.295Z,99644.78
2022-10-22T16:18:35.916Z,99639.91
2022-10-22T16:21:05.018Z,99651.81
2022-10-22T16:23:33.405Z,99657.88
2022-10-22T16:26:02.836Z,99675.34
2022-10-22T16:31:07.185Z,99676.19
2022-10-22T16:33:41.513Z,99684.31
2022-10-22T16:36:16.603Z,99688.66
2022-10-22T16:38:45.697Z,99699.72
2022-10-22T16:41:18.484Z,99699.03
2022-10-22T16:43:56.031Z,99699.72
2022-10-22T16:46:26.678Z,99708.63
2022-10-22T16:48:55.648Z,99710.00
2022-10-22T16:51:26.390Z,99720.72
2022-10-22T16:53:55.752Z,99730.31
2022-10-22T16:56:27.231Z,99723.75
2022-10-22T16:59:03.546Z,99737.22
2022-10-22T17:01:41.370Z,99737.88
2022-10-22T17:04:11.268Z,99739.59
2022-10-22T17:06:41.212Z,99738.91
2022-10-22T17:09:12.235Z,99740.56
2022-10-22T17:11:44.951Z,99737.91
2022-10-22T17:14:18.238Z,99749.00
2022-10-22T17:16:57.222Z,99750.16
2022-10-22T17:19:40.008Z,99756.06
2022-10-22T17:22:18.492Z,99750.50
2022-10-22T17:24:50.483Z,99749.34
2022-10-22T17:27:25.669Z,99750.84
2022-10-22T17:30:02.315Z,99758.41
2022-10-22T17:32:38.890Z,99756.22
2022-10-22T17:35:10.192Z,99756.06
2022-10-22T17:37:45.477Z,99762.13
2022-10-22T17:40:23.854Z,99770.38
2022-10-22T17:42:53.807Z,99769.84
2022-10-22T17:45:29.665Z,99762.81
2022-10-22T17:48:02.570Z,99771.19
2022-10-22T17:50:32.515Z,99769.69
2022-10-22T17:53:02.789Z,99764.81
2022-10-22T17:55:37.379Z,99774.56
2022-10-22T17:58:07.403Z,99770.53
2022-10-22T18:00:43.263Z,99782.28
2022-10-22T18:03:13.026Z,99769.84
2022-10-22T18:05:47.671Z,99769.19
2022-10-22T18:08:21.076Z,99778.94
2022-10-22T18:10:52.351Z,99778.56
2022-10-22T18:13:24.018Z,99783.63
2022-10-22T18:15:58.852Z,99792.00
2022-10-22T18:18:37.607Z,99788.34
2022-10-22T18:21:07.137Z,99791.38
2022-10-22T18:23:41.592Z,99799.41
2022-10-22T18:26:13.250Z,99792.00
2022-10-22T18:28:45.851Z,99805.97
2022-10-22T18:31:28.003Z,99793.38
2022-10-22T18:33:59.433Z,99792.00
2022-10-22T18:36:38.884Z,99817.56
2022-10-22T18:39:08.861Z,99805.97
2022-10-22T18:41:39.071Z,99801.91
2022-10-22T18:44:08.981Z,99813.34
2022-10-22T18:46:50.277Z,99817.00
2022-10-22T18:49:23.092Z,99816.91
2022-10-22T18:51:54.253Z,99816.72
2022-10-22T18:54:32.151Z,99821.91
2022-10-22T18:57:04.514Z,99827.91
2022-10-22T18:59:33.840Z,99823.63
2022-10-22T19:02:19.934Z,99831.63
2022-10-22T19:04:50.969Z,99826.91
2022-10-22T19:07:29.651Z,99826.13
2022-10-22T19:10:00.466Z,99830.81
2022-10-22T19:12:30.916Z,99839.03
2022-10-22T19:15:07.636Z,99830.34
2022-10-22T19:17:45.795Z,99838.41
2022-10-22T19:20:28.513Z,99833.53
2022-10-22T19:23:02.641Z,99838.34
2022-10-22T19:25:32.816Z,99844.09
2022-10-22T19:28:02.936Z,99844.06
2022-10-22T19:30:33.107Z,99847.41
2022-10-22T19:33:03.736Z,99848.06
2022-10-22T19:35:35.831Z,99867.53
2022-10-22T19:40:51.915Z,99873.59
2022-10-22T19:43:38.500Z,99871.25
2022-10-22T19:46:08.409Z,99870.94
2022-10-22T19:48:48.566Z,99871.50
2022-10-22T19:51:21.995Z,99869.16
2022-10-22T19:53:55.172Z,99870.44
2022-10-22T19:56:27.089Z,99876.13
2022-10-22T19:58:58.520Z,99883.34
2022-10-22T20:01:34.371Z,99891.44
2022-10-22T20:04:16.432Z,99883.53
2022-10-22T20:06:48.074Z,99885.53
2022-10-22T20:09:16.786Z,99879.38
2022-10-22T20:11:49.768Z,99885.88
2022-10-22T20:14:21.594Z,99881.19
2022-10-22T20:16:51.163Z,99888.88
2022-10-22T20:19:26.641Z,99882.53
2022-10-22T20:24:31.881Z,99887.69
2022-10-22T20:27:01.814Z,99891.56
2022-10-22T20:29:29.957Z,99885.28
2022-10-22T20:32:02.364Z,99888.38
2022-10-22T20:34:37.798Z,99887.72
2022-10-22T20:37:14.935Z,99890.88
2022-10-22T20:39:43.822Z,99888.06
2022-10-22T20:42:16.086Z,99890.50
2022-10-22T20:44:48.409Z,99889.47
2022-10-22T20:47:34.215Z,99898.47
2022-10-22T20:50:26.456Z,99908.91
2022-10-22T20:52:55.073Z,99902.91
2022-10-22T20:55:24.100Z,99900.69
2022-10-22T20:57:54.978Z,99902.69
2022-10-22T21:00:23.228Z,99903.97
2022-10-22T21:02:51.935Z,99896.44
2022-10-22T21:05:29.943Z,99901.91
2022-10-22T21:07:58.511Z,99908.06
2022-10-22T21:10:32.371Z,99906.72
2022-10-22T21:13:10.624Z,99909.56
2022-10-22T21:15:40.226Z,99912.53
2022-10-22T21:18:11.569Z,99916.94
2022-10-22T21:20:44.999Z,99909.88
2022-10-22T21:23:13.732Z,99918.44
2022-10-22T21:25:44.046Z,99919.28
2022-10-22T21:28:15.146Z,99926.69
2022-10-22T21:30:46.194Z,99929.16
2022-10-22T21:33:15.523Z,99926.47
2022-10-22T21:35:52.394Z,99925.25
2022-10-22T21:38:24.009Z,99921.03
2022-10-22T21:40:58.818Z,99928.38
2022-10-22T21:43:27.762Z,99931.00
2022-10-22T21:46:07.749Z,99931.94
2022-10-22T21:48:36.991Z,99928.72
2022-10-22T21:51:15.831Z,99926.34
2022-10-22T21:53:47.502Z,99930.28
2022-10-22T21:56:17.703Z,99924.59
2022-10-22T21:58:49.394Z,99926.50
2022-10-22T22:01:17.992Z,99930.13
2022-10-22T22:03:49.227Z,99930.53
2022-10-22T22:06:23.779Z,99937.66
2022-10-22T22:08:54.435Z,99929.75
2022-10-22T22:11:25.411Z,99937.47
2022-10-22T22:13:54.861Z,99933.06
2022-10-22T22:16:28.423Z,99937.47
2022-10-22T22:21:47.062Z,99942.94
2022-10-22T22:24:23.254Z,99936.50
2022-10-22T22:26:54.141Z,99932.31
2022-10-22T22:29:24.951Z,99934.06
2022-10-22T22:31:56.538Z,99933.00
2022-10-22T22:34:27.440Z,99947.88
2022-10-22T22:36:59.729Z,99939.31
2022-10-22T22:39:29.489Z,99949.06
2022-10-22T22:42:00.150Z,99942.25
2022-10-22T22:44:29.245Z,99949.03
2022-10-22T22:47:00.436Z,99948.09
2022-10-22T22:49:35.591Z,99936.22
2022-10-22T22:52:10.255Z,99936.06
2022-10-22T22:54:42.284Z,99930.91
2022-10-22T22:57:10.855Z,99942.31
2022-10-22T22:59:38.962Z,99942.06
2022-10-22T23:02:15.852Z,99940.09
2022-10-22T23:04:44.146Z,99933.53
2022-10-22T23:07:14.830Z,99942.00
2022-10-22T23:09:42.930Z,99941.34
2022-10-22T23:12:12.027Z,99940.59
2022-10-22T23:14:40.096Z,99940.44
2022-10-22T23:17:08.203Z,99935.44
2022-10-22T23:19:36.311Z,99942.00
2022-10-22T23:22:04.369Z,99949.28
2022-10-22T23:24:33.770Z,99943.44
2022-10-22T23:27:02.824Z,99947.66
2022-10-22T23:29:32.244Z,99952.25
2022-10-22T23:32:01.400Z,99962.78
2022-10-22T23:34:30.483Z,99956.38
2022-10-22T23:36:59.734Z,99953.06
2022-10-22T23:39:29.517Z,99964.09
2022-10-22T23:41:59.675Z,99963.56
2022-10-22T23:44:28.079Z,99957.09
2022-10-22T23:46:56.308Z,99967.41
2022-10-22T23:49:24.454Z,99969.16
2022-10-22T23:51:52.531Z,99965.13
2022-10-22T23:54:20.695Z,99962.72
2022-10-22T23:56:49.051Z,99968.47
2022-10-22T23:59:18.443Z,99965.94
